createdAt,value
2023-02-09T00:01:36.152Z,99.90
2023-02-09T00:04:03.896Z,99.90
2023-02-09T00:06:31.427Z,99.90
2023-02-09T00:08:59.733Z,99.90
2023-02-09T00:11:48.010Z,99.90
2023-02-09T00:14:19.217Z,99.90
2023-02-09T00:16:48.873Z,99.90
2023-02-09T00:19:16.872Z,99.90
2023-02-09T00:21:44.438Z,99.90
2023-02-09T00:24:14.764Z,99.90
2023-02-09T00:26:42.628Z,99.90
2023-02-09T00:29:10.449Z,99.90
2023-02-09T00:31:38.028Z,99.90
2023-02-09T00:34:05.990Z,99.90
2023-02-09T00:36:33.994Z,99.90
2023-02-09T00:39:01.486Z,99.90
2023-02-09T00:41:47.236Z,99.90
2023-02-09T00:44:15.075Z,99.90
2023-02-09T00:46:42.742Z,99.90
2023-02-09T00:49:10.185Z,99.90
2023-02-09T00:51:37.935Z,99.90
2023-02-09T00:54:05.444Z,99.90
2023-02-09T00:56:32.959Z,99.90
2023-02-09T00:59:00.664Z,99.90
2023-02-09T01:01:28.125Z,99.90
2023-02-09T01:03:56.435Z,99.90
2023-02-09T01:06:23.830Z,99.90
2023-02-09T01:08:51.595Z,99.90
2023-02-09T01:11:19.138Z,99.90
2023-02-09T01:13:47.609Z,99.90
2023-02-09T01:16:17.389Z,99.90
2023-02-09T01:18:44.919Z,99.90
2023-02-09T01:21:14.170Z,99.90
2023-02-09T01:23:41.553Z,99.90
2023-02-09T01:26:10.381Z,99.90
2023-02-09T01:28:38.080Z,99.90
2023-02-09T01:31:17.366Z,99.90
2023-02-09T01:33:44.880Z,99.90
2023-02-09T01:36:12.042Z,99.90
2023-02-09T01:38:39.440Z,99.90
2023-02-09T01:41:06.828Z,99.90
2023-02-09T01:43:58.673Z,99.90
2023-02-09T01:46:31.403Z,99.90
2023-02-09T01:49:08.306Z,99.90
2023-02-09T01:51:39.698Z,99.90
2023-02-09T01:54:15.321Z,99.90
2023-02-09T01:56:47.880Z,99.90
2023-02-09T01:59:16.435Z,99.90
2023-02-09T02:01:44.154Z,99.90
2023-02-09T02:04:11.817Z,99.90
2023-02-09T02:06:40.068Z,99.90
2023-02-09T02:09:13.447Z,99.90
2023-02-09T02:11:43.494Z,99.90
2023-02-09T02:14:37.411Z,99.90
2023-02-09T02:17:25.825Z,99.90
2023-02-09T02:20:15.719Z,99.90
2023-02-09T02:23:00.417Z,99.90
2023-02-09T02:25:39.042Z,99.90
2023-02-09T02:28:45.634Z,99.90
2023-02-09T02:31:37.134Z,99.90
2023-02-09T02:34:11.696Z,99.90
2023-02-09T02:37:06.005Z,99.90
2023-02-09T02:40:10.651Z,99.90
2023-02-09T02:43:22.252Z,99.90
2023-02-09T02:46:07.358Z,99.90
2023-02-09T02:48:51.686Z,99.90
2023-02-09T02:51:29.688Z,99.90
2023-02-09T02:54:00.475Z,99.90
2023-02-09T02:56:36.991Z,99.90
2023-02-09T02:59:08.174Z,99.90
2023-02-09T03:01:45.608Z,99.90
2023-02-09T03:04:15.593Z,99.90
2023-02-09T03:06:43.248Z,99.90
2023-02-09T03:09:10.486Z,99.90
2023-02-09T03:11:42.187Z,99.90
2023-02-09T03:14:28.584Z,99.90
2023-02-09T03:17:24.904Z,99.90
2023-02-09T03:20:08.879Z,99.90
2023-02-09T03:22:41.161Z,99.90
2023-02-09T03:25:15.061Z,99.90
2023-02-09T03:27:49.013Z,99.90
2023-02-09T03:30:21.983Z,99.90
2023-02-09T03:32:49.299Z,99.90
2023-02-09T03:35:20.930Z,99.90
2023-02-09T03:37:48.154Z,99.90
2023-02-09T03:40:15.461Z,99.90
2023-02-09T03:42:42.674Z,99.90
2023-02-09T03:45:09.779Z,99.90
2023-02-09T03:47:36.680Z,99.90
2023-02-09T03:50:06.743Z,99.90
2023-02-09T03:52:34.116Z,99.90
2023-02-09T03:55:01.684Z,99.90
2023-02-09T03:57:35.301Z,99.90
2023-02-09T04:00:03.490Z,99.90
2023-02-09T04:02:30.398Z,99.90
2023-02-09T04:04:57.794Z,99.90
2023-02-09T04:07:25.193Z,99.90
2023-02-09T04:09:52.303Z,99.90
2023-02-09T04:12:19.482Z,99.90
2023-02-09T04:14:46.331Z,99.90
2023-02-09T04:17:13.307Z,99.90
2023-02-09T04:19:40.258Z,99.90
2023-02-09T04:22:08.249Z,99.90
2023-02-09T04:24:35.170Z,99.90
2023-02-09T04:27:02.080Z,99.90
2023-02-09T04:29:29.200Z,99.90
2023-02-09T04:31:56.524Z,99.90
2023-02-09T04:34:24.624Z,99.90
2023-02-09T04:36:51.826Z,99.90
2023-02-09T04:39:18.784Z,99.90
2023-02-09T04:41:45.776Z,99.90
2023-02-09T04:44:12.742Z,99.90
2023-02-09T04:46:40.061Z,99.90
2023-02-09T04:49:06.906Z,99.90
2023-02-09T04:51:33.950Z,99.90
2023-02-09T04:54:00.833Z,99.90
2023-02-09T04:56:27.710Z,99.90
2023-02-09T04:59:13.398Z,99.90
2023-02-09T05:01:40.500Z,99.90
2023-02-09T05:04:07.844Z,99.90
2023-02-09T05:06:35.018Z,99.90
2023-02-09T05:09:01.975Z,99.90
2023-02-09T05:11:29.041Z,99.90
2023-02-09T05:13:56.473Z,99.90
2023-02-09T05:16:23.494Z,99.90
2023-02-09T05:18:51.147Z,99.90
2023-02-09T05:21:18.126Z,99.90
2023-02-09T05:23:44.967Z,99.90
2023-02-09T05:26:12.085Z,99.90
2023-02-09T05:28:39.342Z,99.90
2023-02-09T05:31:06.571Z,99.90
2023-02-09T05:33:33.913Z,99.90
2023-02-09T05:36:01.431Z,99.90
2023-02-09T05:38:28.984Z,99.90
2023-02-09T05:40:55.963Z,99.90
2023-02-09T05:43:23.071Z,99.90
2023-02-09T05:45:50.110Z,99.90
2023-02-09T05:48:17.452Z,99.90
2023-02-09T05:50:44.612Z,99.90
2023-02-09T05:53:13.809Z,99.90
2023-02-09T05:55:42.276Z,99.90
2023-02-09T05:58:09.548Z,99.90
2023-02-09T06:00:36.571Z,99.90
2023-02-09T06:03:03.658Z,99.90
2023-02-09T06:05:30.844Z,99.90
2023-02-09T06:07:58.203Z,99.90
2023-02-09T06:10:25.118Z,99.90
2023-02-09T06:12:52.118Z,99.90
2023-02-09T06:15:19.145Z,99.90
2023-02-09T06:17:46.551Z,99.90
2023-02-09T06:20:13.563Z,99.90
2023-02-09T06:22:40.720Z,99.90
2023-02-09T06:25:07.968Z,99.90
2023-02-09T06:27:36.011Z,99.90
2023-02-09T06:30:03.407Z,99.90
2023-02-09T06:32:30.266Z,99.90
2023-02-09T06:34:57.242Z,99.90
2023-02-09T06:37:24.189Z,99.90
2023-02-09T06:39:51.477Z,99.90
2023-02-09T06:42:18.658Z,99.90
2023-02-09T06:44:45.617Z,99.90
2023-02-09T06:47:12.816Z,99.90
2023-02-09T06:49:39.821Z,99.90
2023-02-09T06:52:06.857Z,99.90
2023-02-09T06:54:33.868Z,99.90
2023-02-09T06:57:00.784Z,99.90
2023-02-09T06:59:27.811Z,99.90
2023-02-09T07:01:55.250Z,99.90
2023-02-09T07:04:23.142Z,99.90
2023-02-09T07:06:50.500Z,99.90
2023-02-09T07:09:17.373Z,99.90
2023-02-09T07:11:44.762Z,99.90
2023-02-09T07:14:11.824Z,99.90
2023-02-09T07:16:39.021Z,99.90
2023-02-09T07:19:06.024Z,99.90
2023-02-09T07:21:33.192Z,99.90
2023-02-09T07:24:00.337Z,99.90
2023-02-09T07:26:27.425Z,99.90
2023-02-09T07:28:54.416Z,99.90
2023-02-09T07:31:21.503Z,99.90
2023-02-09T07:33:48.599Z,99.90
2023-02-09T07:36:16.775Z,99.90
2023-02-09T07:38:44.404Z,99.90
2023-02-09T07:41:16.023Z,99.90
2023-02-09T07:43:42.959Z,99.90
2023-02-09T07:46:11.629Z,99.90
2023-02-09T07:48:38.741Z,99.90
2023-02-09T07:51:06.000Z,99.90
2023-02-09T07:53:33.767Z,99.90
2023-02-09T07:56:00.924Z,99.90
2023-02-09T07:58:28.352Z,99.90
2023-02-09T08:00:55.256Z,99.90
2023-02-09T08:03:23.930Z,99.90
2023-02-09T08:06:05.775Z,99.90
2023-02-09T08:08:32.794Z,99.90
2023-02-09T08:11:01.413Z,99.90
2023-02-09T08:13:34.081Z,99.90
2023-02-09T08:16:04.795Z,99.90
2023-02-09T08:18:44.853Z,99.90
2023-02-09T08:21:15.775Z,99.90
2023-02-09T08:23:44.546Z,99.90
2023-02-09T08:26:13.469Z,99.90
2023-02-09T08:28:44.914Z,99.90
2023-02-09T08:31:17.836Z,99.90
2023-02-09T08:33:47.295Z,99.90
2023-02-09T08:36:15.056Z,99.90
2023-02-09T08:38:42.159Z,99.90
2023-02-09T08:41:12.408Z,99.90
2023-02-09T08:43:39.956Z,99.90
2023-02-09T08:46:13.024Z,99.90
2023-02-09T08:48:42.388Z,99.90
2023-02-09T08:51:10.629Z,99.90
2023-02-09T08:53:37.686Z,99.90
2023-02-09T08:56:04.887Z,99.90
2023-02-09T08:58:33.357Z,99.90
2023-02-09T09:01:00.584Z,99.90
2023-02-09T09:03:31.388Z,99.90
2023-02-09T09:06:05.848Z,99.90
2023-02-09T09:08:34.867Z,99.90
2023-02-09T09:11:02.330Z,99.90
2023-02-09T09:13:29.912Z,99.90
2023-02-09T09:15:57.139Z,99.90
2023-02-09T09:18:25.724Z,99.90
2023-02-09T09:20:53.393Z,99.90
2023-02-09T09:23:21.414Z,99.90
2023-02-09T09:25:48.752Z,99.90
2023-02-09T09:28:17.571Z,99.90
2023-02-09T09:30:44.666Z,99.90
2023-02-09T09:33:11.791Z,99.90
2023-02-09T09:35:38.914Z,99.90
2023-02-09T09:38:06.430Z,99.90
2023-02-09T09:40:35.621Z,99.90
2023-02-09T09:43:06.069Z,99.90
2023-02-09T09:45:38.282Z,99.90
2023-02-09T09:48:18.365Z,99.90
2023-02-09T09:50:46.647Z,99.90
2023-02-09T09:53:33.357Z,99.90
2023-02-09T09:56:07.509Z,99.90
2023-02-09T09:58:39.238Z,99.90
2023-02-09T10:01:10.490Z,99.90
2023-02-09T10:03:37.515Z,99.90
2023-02-09T10:06:18.379Z,99.90
2023-02-09T10:09:06.392Z,99.90
2023-02-09T10:11:48.223Z,99.90
2023-02-09T10:14:15.997Z,99.90
2023-02-09T10:16:44.715Z,99.90
2023-02-09T10:19:19.252Z,99.90
2023-02-09T10:21:46.401Z,99.90
2023-02-09T10:24:25.743Z,99.90
2023-02-09T10:27:15.577Z,99.90
2023-02-09T10:29:42.814Z,99.90
2023-02-09T10:32:20.498Z,99.90
2023-02-09T10:34:51.185Z,99.90
2023-02-09T10:37:29.323Z,99.90
2023-02-09T10:40:06.352Z,99.90
2023-02-09T10:42:36.162Z,99.90
2023-02-09T10:45:11.141Z,99.90
2023-02-09T10:47:38.192Z,99.90
2023-02-09T10:50:11.061Z,99.90
2023-02-09T10:52:43.787Z,99.90
2023-02-09T10:55:21.645Z,99.90
2023-02-09T10:57:48.820Z,99.90
2023-02-09T11:00:16.040Z,99.90
2023-02-09T11:02:50.308Z,99.50
2023-02-09T11:05:23.243Z,98.80
2023-02-09T11:07:58.066Z,99.20
2023-02-09T11:10:27.520Z,99.60
2023-02-09T11:12:54.754Z,99.30
2023-02-09T11:15:28.088Z,99.60
2023-02-09T11:18:16.969Z,98.40
2023-02-09T11:21:07.033Z,98.70
2023-02-09T11:23:56.188Z,98.60
2023-02-09T11:26:47.638Z,97.90
2023-02-09T11:29:41.609Z,98.90
2023-02-09T11:32:24.372Z,98.00
2023-02-09T11:35:01.623Z,98.20
2023-02-09T11:37:36.972Z,98.50
2023-02-09T11:40:33.310Z,97.20
2023-02-09T11:43:17.675Z,97.00
2023-02-09T11:45:55.042Z,96.70
2023-02-09T11:48:29.266Z,96.80
2023-02-09T11:51:04.792Z,96.40
2023-02-09T11:53:41.136Z,97.20
2023-02-09T11:56:28.036Z,96.80
2023-02-09T11:59:03.874Z,97.20
2023-02-09T12:01:50.600Z,95.30
2023-02-09T12:04:38.024Z,95.40
2023-02-09T12:07:31.305Z,97.70
2023-02-09T12:10:35.662Z,95.20
2023-02-09T12:13:42.008Z,96.80
2023-02-09T12:16:16.161Z,93.90
2023-02-09T12:18:45.132Z,94.20
2023-02-09T12:21:12.737Z,94.60
2023-02-09T12:23:40.832Z,94.80
2023-02-09T12:26:16.963Z,95.00
2023-02-09T12:29:03.671Z,95.00
2023-02-09T12:31:51.597Z,94.60
2023-02-09T12:34:28.501Z,95.20
2023-02-09T12:37:12.604Z,95.70
2023-02-09T12:40:02.745Z,94.50
2023-02-09T12:42:39.707Z,93.50
2023-02-09T12:45:34.669Z,92.80
2023-02-09T12:48:13.432Z,92.80
2023-02-09T12:50:43.425Z,92.80
2023-02-09T12:53:22.734Z,91.40
2023-02-09T12:56:28.882Z,92.40
2023-02-09T12:59:12.981Z,91.80
2023-02-09T13:02:08.330Z,92.70
2023-02-09T13:04:38.918Z,92.30
2023-02-09T13:07:15.236Z,92.60
2023-02-09T13:09:43.185Z,90.00
2023-02-09T13:12:18.287Z,90.80
2023-02-09T13:14:49.761Z,90.70
2023-02-09T13:17:29.819Z,90.40
2023-02-09T13:20:14.317Z,90.40
2023-02-09T13:22:49.106Z,90.30
2023-02-09T13:25:35.908Z,90.10
2023-02-09T13:28:22.581Z,90.50
2023-02-09T13:30:50.247Z,88.70
2023-02-09T13:33:36.488Z,90.10
2023-02-09T13:36:16.250Z,89.60
2023-02-09T13:38:50.170Z,87.40
2023-02-09T13:41:37.262Z,88.00
2023-02-09T13:44:04.591Z,89.80
2023-02-09T13:46:35.207Z,87.60
2023-02-09T13:49:15.695Z,86.60
2023-02-09T13:51:43.068Z,87.70
2023-02-09T13:54:21.120Z,86.80
2023-02-09T13:56:48.436Z,86.40
2023-02-09T13:59:17.610Z,88.70
2023-02-09T14:01:47.953Z,86.80
2023-02-09T14:04:22.362Z,87.70
2023-02-09T14:07:08.501Z,85.60
2023-02-09T14:10:01.552Z,86.50
2023-02-09T14:12:59.859Z,87.60
2023-02-09T14:15:55.867Z,85.90
2023-02-09T14:18:32.943Z,83.50
2023-02-09T14:21:13.907Z,87.30
2023-02-09T14:23:43.030Z,85.30
2023-02-09T14:26:28.408Z,85.90
2023-02-09T14:29:15.695Z,87.00
2023-02-09T14:31:58.373Z,85.10
2023-02-09T14:34:33.048Z,87.00
2023-02-09T14:37:01.659Z,88.50
2023-02-09T14:39:31.479Z,87.30
2023-02-09T14:42:10.826Z,87.00
2023-02-09T14:44:46.738Z,84.20
2023-02-09T14:47:35.482Z,87.00
2023-02-09T14:50:02.601Z,85.20
2023-02-09T14:52:32.576Z,88.50
2023-02-09T14:55:04.479Z,85.70
2023-02-09T14:57:33.169Z,86.80
2023-02-09T15:00:00.159Z,85.00
2023-02-09T15:02:28.128Z,86.80
2023-02-09T15:04:55.474Z,84.80
2023-02-09T15:07:28.794Z,88.20
2023-02-09T15:09:56.011Z,86.70
2023-02-09T15:12:26.146Z,88.50
2023-02-09T15:14:59.158Z,86.80
2023-02-09T15:17:29.381Z,83.90
2023-02-09T15:19:57.725Z,85.00
2023-02-09T15:22:25.019Z,84.00
2023-02-09T15:24:54.440Z,83.80
2023-02-09T15:27:33.902Z,85.50
2023-02-09T15:30:04.297Z,84.50
2023-02-09T15:32:31.986Z,86.20
2023-02-09T15:34:59.117Z,87.50
2023-02-09T15:37:29.542Z,88.10
2023-02-09T15:40:01.901Z,87.80
2023-02-09T15:42:47.569Z,88.10
2023-02-09T15:45:44.686Z,89.10
2023-02-09T15:48:13.169Z,90.10
2023-02-09T15:50:46.847Z,91.00
2023-02-09T15:53:18.827Z,91.70
2023-02-09T15:55:46.941Z,92.10
2023-02-09T15:58:17.138Z,91.00
2023-02-09T16:00:44.687Z,91.60
2023-02-09T16:03:17.847Z,92.50
2023-02-09T16:05:46.032Z,92.00
2023-02-09T16:08:27.748Z,92.00
2023-02-09T16:10:54.810Z,92.80
2023-02-09T16:13:22.008Z,93.20
2023-02-09T16:15:49.209Z,94.00
2023-02-09T16:18:16.185Z,94.10
2023-02-09T16:20:50.019Z,94.20
2023-02-09T16:23:21.751Z,94.40
2023-02-09T16:25:53.417Z,94.40
2023-02-09T16:28:21.817Z,94.70
2023-02-09T16:30:52.778Z,95.10
2023-02-09T16:33:20.981Z,95.40
2023-02-09T16:36:00.660Z,96.00
2023-02-09T16:38:29.772Z,96.50
2023-02-09T16:40:57.060Z,96.70
2023-02-09T16:43:24.521Z,96.90
2023-02-09T16:46:02.825Z,97.30
2023-02-09T16:48:34.657Z,97.20
2023-02-09T16:51:02.213Z,97.40
2023-02-09T16:53:39.331Z,97.70
2023-02-09T16:56:10.135Z,98.00
2023-02-09T16:58:38.202Z,98.20
2023-02-09T17:01:19.122Z,98.30
2023-02-09T17:03:50.091Z,98.20
2023-02-09T17:06:21.324Z,98.30
2023-02-09T17:08:48.472Z,98.40
2023-02-09T17:11:23.244Z,98.50
2023-02-09T17:13:50.218Z,98.70
2023-02-09T17:16:28.343Z,98.70
2023-02-09T17:19:00.890Z,98.90
2023-02-09T17:21:31.534Z,99.10
2023-02-09T17:23:58.554Z,99.50
2023-02-09T17:26:25.697Z,99.70
2023-02-09T17:28:52.903Z,99.10
2023-02-09T17:31:26.642Z,99.30
2023-02-09T17:33:57.145Z,99.50
2023-02-09T17:36:27.484Z,99.90
2023-02-09T17:38:57.766Z,99.90
2023-02-09T17:41:37.288Z,99.90
2023-02-09T17:44:28.921Z,99.90
2023-02-09T17:47:03.334Z,99.90
2023-02-09T17:49:30.501Z,99.90
2023-02-09T17:51:57.789Z,99.70
2023-02-09T17:54:25.258Z,99.90
2023-02-09T17:56:52.437Z,99.90
2023-02-09T17:59:21.255Z,99.90
2023-02-09T18:01:50.410Z,99.90
2023-02-09T18:04:20.418Z,99.90
2023-02-09T18:06:48.327Z,99.90
2023-02-09T18:09:15.741Z,99.90
2023-02-09T18:11:46.017Z,99.90
2023-02-09T18:14:14.288Z,99.90
2023-02-09T18:16:42.617Z,99.90
2023-02-09T18:19:11.270Z,99.90
2023-02-09T18:21:39.176Z,99.90
2023-02-09T18:24:06.862Z,99.90
2023-02-09T18:26:34.803Z,99.90
2023-02-09T18:29:01.850Z,99.90
2023-02-09T18:31:28.738Z,99.90
2023-02-09T18:33:55.888Z,99.90
2023-02-09T18:36:22.984Z,99.90
2023-02-09T18:38:52.117Z,99.90
2023-02-09T18:41:19.418Z,99.90
2023-02-09T18:43:46.444Z,99.90
2023-02-09T18:46:14.615Z,99.90
2023-02-09T18:48:42.152Z,99.90
2023-02-09T18:51:10.193Z,99.90
2023-02-09T18:53:38.382Z,99.90
2023-02-09T18:56:05.767Z,99.90
2023-02-09T18:58:32.932Z,99.90
2023-02-09T19:01:00.366Z,99.90
2023-02-09T19:03:29.117Z,99.90
2023-02-09T19:05:57.123Z,99.90
2023-02-09T19:08:24.342Z,99.90
2023-02-09T19:10:51.702Z,99.90
2023-02-09T19:13:18.953Z,99.90
2023-02-09T19:15:46.536Z,99.90
2023-02-09T19:18:13.679Z,99.90
2023-02-09T19:20:40.703Z,99.90
2023-02-09T19:23:08.721Z,99.90
2023-02-09T19:25:36.548Z,99.90
2023-02-09T19:28:03.679Z,99.90
2023-02-09T19:30:31.079Z,99.90
2023-02-09T19:32:58.916Z,99.90
2023-02-09T19:35:26.379Z,99.90
2023-02-09T19:37:55.234Z,99.90
2023-02-09T19:40:41.323Z,99.90
2023-02-09T19:43:08.317Z,99.90
2023-02-09T19:45:37.963Z,99.90
2023-02-09T19:48:08.950Z,99.90
2023-02-09T19:50:36.924Z,99.90
2023-02-09T19:53:05.323Z,99.90
2023-02-09T19:55:32.404Z,99.90
2023-02-09T19:57:59.485Z,99.90
2023-02-09T20:00:26.793Z,99.90
2023-02-09T20:02:54.156Z,99.90
2023-02-09T20:05:21.404Z,99.90
2023-02-09T20:07:49.193Z,99.90
2023-02-09T20:10:16.351Z,99.90
2023-02-09T20:15:15.981Z,99.90
2023-02-09T20:17:44.476Z,99.90
2023-02-09T20:20:12.421Z,99.90
2023-02-09T20:22:39.380Z,99.90
2023-02-09T20:25:06.966Z,99.90
2023-02-09T20:27:34.643Z,99.90
2023-02-09T20:30:07.340Z,99.90
2023-02-09T20:32:36.618Z,99.90
2023-02-09T20:35:05.289Z,99.90
2023-02-09T20:37:32.531Z,99.90
2023-02-09T20:39:59.731Z,99.90
2023-02-09T20:42:45.215Z,99.90
2023-02-09T20:45:35.170Z,99.90
2023-02-09T20:48:04.097Z,99.90
2023-02-09T20:50:35.281Z,99.90
2023-02-09T20:53:02.711Z,99.90
2023-02-09T20:55:30.323Z,99.90
2023-02-09T20:57:57.494Z,99.90
2023-02-09T21:00:24.660Z,99.90
2023-02-09T21:02:52.541Z,99.90
2023-02-09T21:05:20.171Z,99.90
2023-02-09T21:07:50.366Z,99.90
2023-02-09T21:10:17.584Z,99.90
2023-02-09T21:12:44.841Z,99.90
2023-02-09T21:15:11.988Z,99.90
2023-02-09T21:17:45.402Z,99.90
2023-02-09T21:20:14.029Z,99.90
2023-02-09T21:22:41.236Z,99.90
2023-02-09T21:25:08.505Z,99.90
2023-02-09T21:27:35.556Z,99.90
2023-02-09T21:30:02.956Z,99.90
2023-02-09T21:32:30.285Z,99.90
2023-02-09T21:34:57.535Z,99.90
2023-02-09T21:37:24.959Z,99.90
2023-02-09T21:39:51.986Z,99.90
2023-02-09T21:42:28.830Z,99.90
2023-02-09T21:44:56.363Z,99.90
2023-02-09T21:47:28.286Z,99.90
2023-02-09T21:49:55.594Z,99.90
2023-02-09T21:52:23.542Z,99.90
2023-02-09T21:54:50.927Z,99.90
2023-02-09T21:57:18.212Z,99.90
2023-02-09T21:59:45.377Z,99.90
2023-02-09T22:02:17.075Z,99.90
2023-02-09T22:04:46.098Z,99.90
2023-02-09T22:07:14.238Z,99.90
2023-02-09T22:09:41.341Z,99.90
2023-02-09T22:12:08.689Z,99.90
2023-02-09T22:14:36.017Z,99.90
2023-02-09T22:17:03.369Z,99.90
2023-02-09T22:19:30.669Z,99.90
2023-02-09T22:21:58.130Z,99.90
2023-02-09T22:24:25.507Z,99.90
2023-02-09T22:26:52.595Z,99.90
2023-02-09T22:29:19.732Z,99.90
2023-02-09T22:31:46.981Z,99.90
2023-02-09T22:34:14.252Z,99.90
2023-02-09T22:36:41.486Z,99.90
2023-02-09T22:39:08.922Z,99.90
2023-02-09T22:41:36.169Z,99.90
2023-02-09T22:44:10.027Z,99.90
2023-02-09T22:46:42.077Z,99.90
2023-02-09T22:49:17.544Z,99.90
2023-02-09T22:51:45.503Z,99.90
2023-02-09T22:54:14.482Z,99.90
2023-02-09T22:56:41.699Z,99.90
2023-02-09T22:59:10.471Z,99.90
2023-02-09T23:01:38.097Z,99.90
2023-02-09T23:04:06.058Z,99.90
2023-02-09T23:06:33.256Z,99.90
2023-02-09T23:09:03.205Z,99.90
2023-02-09T23:11:31.483Z,99.90
2023-02-09T23:14:14.526Z,99.90
2023-02-09T23:16:42.832Z,99.90
2023-02-09T23:19:13.620Z,99.90
2023-02-09T23:21:43.956Z,99.90
2023-02-09T23:24:12.122Z,99.90
2023-02-09T23:26:39.455Z,99.90
2023-02-09T23:29:09.200Z,99.90
2023-02-09T23:31:36.820Z,99.90
2023-02-09T23:34:04.111Z,99.90
2023-02-09T23:36:32.854Z,99.90
2023-02-09T23:39:03.473Z,99.90
2023-02-09T23:41:30.740Z,99.90
2023-02-09T23:43:57.919Z,99.90
2023-02-09T23:46:28.593Z,99.90
2023-02-09T23:48:56.632Z,99.90
2023-02-09T23:51:35.541Z,99.90
2023-02-09T23:54:05.311Z,99.90
2023-02-09T23:56:36.977Z,99.90
2023-02-09T23:59:06.814Z,99.90
